sensor_id;sensor_type;location;lat;lon;timestamp;temperature;humidity
20829;DHT22;10575;50.124;8.582;2023-05-07T00:00:13;17.70;99.90
20829;DHT22;10575;50.124;8.582;2023-05-07T00:02:40;17.70;99.90
20829;DHT22;10575;50.124;8.582;2023-05-07T00:05:06;17.70;99.90
20829;DHT22;10575;50.124;8.582;2023-05-07T00:07:32;17.70;99.90
20829;DHT22;10575;50.124;8.582;2023-05-07T00:09:58;17.60;99.90
20829;DHT22;10575;50.124;8.582;2023-05-07T00:12:23;17.50;99.90
20829;DHT22;10575;50.124;8.582;2023-05-07T00:14:49;17.50;99.90
20829;DHT22;10575;50.124;8.582;2023-05-07T00:17:14;17.50;99.90
20829;DHT22;10575;50.124;8.582;2023-05-07T00:19:40;17.50;99.90
20829;DHT22;10575;50.124;8.582;2023-05-07T00:22:06;17.40;99.90
20829;DHT22;10575;50.124;8.582;2023-05-07T00:24:32;17.50;99.90
20829;DHT22;10575;50.124;8.582;2023-05-07T00:26:58;17.60;99.90
20829;DHT22;10575;50.124;8.582;2023-05-07T00:29:23;17.60;99.90
20829;DHT22;10575;50.124;8.582;2023-05-07T00:31:49;17.60;99.90
20829;DHT22;10575;50.124;8.582;2023-05-07T00:34:15;17.60;99.90
20829;DHT22;10575;50.124;8.582;2023-05-07T00:36:41;17.60;99.90
20829;DHT22;10575;50.124;8.582;2023-05-07T00:39:06;17.60;99.90
20829;DHT22;10575;50.124;8.582;2023-05-07T00:41:32;17.50;99.90
20829;DHT22;10575;50.124;8.582;2023-05-07T00:43:57;17.30;99.90
20829;DHT22;10575;50.124;8.582;2023-05-07T00:46:23;17.20;99.90
20829;DHT22;10575;50.124;8.582;2023-05-07T00:48:50;17.10;99.90
20829;DHT22;10575;50.124;8.582;2023-05-07T00:51:17;17.10;99.90
20829;DHT22;10575;50.124;8.582;2023-05-07T00:53:42;17.10;99.90
20829;DHT22;10575;50.124;8.582;2023-05-07T00:56:11;17.10;99.90
20829;DHT22;10575;50.124;8.582;2023-05-07T00:58:37;17.10;99.90
20829;DHT22;10575;50.124;8.582;2023-05-07T01:01:02;17.20;99.90
20829;DHT22;10575;50.124;8.582;2023-05-07T01:03:28;17.30;99.90
20829;DHT22;10575;50.124;8.582;2023-05-07T01:05:54;17.40;99.90
20829;DHT22;10575;50.124;8.582;2023-05-07T01:08:23;17.50;99.90
20829;DHT22;10575;50.124;8.582;2023-05-07T01:10:51;17.50;99.90
20829;DHT22;10575;50.124;8.582;2023-05-07T01:13:17;17.60;99.90
20829;DHT22;10575;50.124;8.582;2023-05-07T01:15:43;17.60;99.90
20829;DHT22;10575;50.124;8.582;2023-05-07T01:18:09;17.60;99.90
20829;DHT22;10575;50.124;8.582;2023-05-07T01:20:34;17.70;99.90
20829;DHT22;10575;50.124;8.582;2023-05-07T01:23:00;17.60;99.90
20829;DHT22;10575;50.124;8.582;2023-05-07T01:25:26;17.70;99.90
20829;DHT22;10575;50.124;8.582;2023-05-07T01:27:52;17.70;99.90
20829;DHT22;10575;50.124;8.582;2023-05-07T01:30:18;17.70;99.90
20829;DHT22;10575;50.124;8.582;2023-05-07T01:32:57;17.60;99.90
20829;DHT22;10575;50.124;8.582;2023-05-07T01:35:27;17.70;99.90
20829;DHT22;10575;50.124;8.582;2023-05-07T01:37:54;17.70;99.90
20829;DHT22;10575;50.124;8.582;2023-05-07T01:40:20;17.70;99.90
20829;DHT22;10575;50.124;8.582;2023-05-07T01:42:46;17.60;99.90
20829;DHT22;10575;50.124;8.582;2023-05-07T01:45:13;17.60;99.90
20829;DHT22;10575;50.124;8.582;2023-05-07T01:47:39;17.60;99.90
20829;DHT22;10575;50.124;8.582;2023-05-07T01:50:09;17.60;99.90
20829;DHT22;10575;50.124;8.582;2023-05-07T01:52:36;17.50;99.90
20829;DHT22;10575;50.124;8.582;2023-05-07T01:55:02;17.50;99.90
20829;DHT22;10575;50.124;8.582;2023-05-07T01:57:28;17.50;99.90
20829;DHT22;10575;50.124;8.582;2023-05-07T01:59:53;17.50;99.90
20829;DHT22;10575;50.124;8.582;2023-05-07T02:02:19;17.50;99.90
20829;DHT22;10575;50.124;8.582;2023-05-07T02:04:44;17.50;99.90
20829;DHT22;10575;50.124;8.582;2023-05-07T02:07:10;17.60;99.90
20829;DHT22;10575;50.124;8.582;2023-05-07T02:09:36;17.60;99.90
20829;DHT22;10575;50.124;8.582;2023-05-07T02:12:01;17.40;99.90
20829;DHT22;10575;50.124;8.582;2023-05-07T02:14:27;17.40;99.90
20829;DHT22;10575;50.124;8.582;2023-05-07T02:16:52;17.30;99.90
20829;DHT22;10575;50.124;8.582;2023-05-07T02:19:18;17.20;99.90
20829;DHT22;10575;50.124;8.582;2023-05-07T02:21:46;17.20;99.90
20829;DHT22;10575;50.124;8.582;2023-05-07T02:24:12;17.30;99.90
20829;DHT22;10575;50.124;8.582;2023-05-07T02:26:37;17.30;99.90
20829;DHT22;10575;50.124;8.582;2023-05-07T02:29:03;17.30;99.90
20829;DHT22;10575;50.124;8.582;2023-05-07T02:31:28;17.40;99.90
20829;DHT22;10575;50.124;8.582;2023-05-07T02:33:54;17.40;99.90
20829;DHT22;10575;50.124;8.582;2023-05-07T02:36:19;17.40;99.90
20829;DHT22;10575;50.124;8.582;2023-05-07T02:38:45;17.40;99.90
20829;DHT22;10575;50.124;8.582;2023-05-07T02:41:10;17.30;99.90
20829;DHT22;10575;50.124;8.582;2023-05-07T02:43:36;17.30;99.90
20829;DHT22;10575;50.124;8.582;2023-05-07T02:46:05;17.40;99.90
20829;DHT22;10575;50.124;8.582;2023-05-07T02:48:31;17.30;99.90
20829;DHT22;10575;50.124;8.582;2023-05-07T02:50:57;17.30;99.90
20829;DHT22;10575;50.124;8.582;2023-05-07T02:53:22;17.30;99.90
20829;DHT22;10575;50.124;8.582;2023-05-07T02:55:48;17.30;99.90
20829;DHT22;10575;50.124;8.582;2023-05-07T02:58:13;17.30;99.90
20829;DHT22;10575;50.124;8.582;2023-05-07T03:00:38;17.30;99.90
20829;DHT22;10575;50.124;8.582;2023-05-07T03:03:04;17.20;99.90
20829;DHT22;10575;50.124;8.582;2023-05-07T03:05:30;17.30;99.90
20829;DHT22;10575;50.124;8.582;2023-05-07T03:07:55;17.20;99.90
20829;DHT22;10575;50.124;8.582;2023-05-07T03:10:21;17.10;99.90
20829;DHT22;10575;50.124;8.582;2023-05-07T03:12:46;17.00;99.90
20829;DHT22;10575;50.124;8.582;2023-05-07T03:15:12;17.00;99.90
20829;DHT22;10575;50.124;8.582;2023-05-07T03:17:38;16.90;99.90
20829;DHT22;10575;50.124;8.582;2023-05-07T03:20:04;16.80;99.90
20829;DHT22;10575;50.124;8.582;2023-05-07T03:22:29;16.70;99.90
20829;DHT22;10575;50.124;8.582;2023-05-07T03:24:55;16.60;99.90
20829;DHT22;10575;50.124;8.582;2023-05-07T03:27:21;16.70;99.90
20829;DHT22;10575;50.124;8.582;2023-05-07T03:29:46;16.70;99.90
20829;DHT22;10575;50.124;8.582;2023-05-07T03:32:12;16.70;99.90
20829;DHT22;10575;50.124;8.582;2023-05-07T03:34:37;16.90;99.90
20829;DHT22;10575;50.124;8.582;2023-05-07T03:37:02;17.00;99.90
20829;DHT22;10575;50.124;8.582;2023-05-07T03:39:28;17.00;99.90
20829;DHT22;10575;50.124;8.582;2023-05-07T03:41:53;16.90;99.90
20829;DHT22;10575;50.124;8.582;2023-05-07T03:44:19;17.00;99.90
20829;DHT22;10575;50.124;8.582;2023-05-07T03:46:45;17.00;99.90
20829;DHT22;10575;50.124;8.582;2023-05-07T03:49:10;17.00;99.90
20829;DHT22;10575;50.124;8.582;2023-05-07T03:51:36;17.00;99.90
20829;DHT22;10575;50.124;8.582;2023-05-07T03:54:02;17.00;99.90
20829;DHT22;10575;50.124;8.582;2023-05-07T03:56:27;17.00;99.90
20829;DHT22;10575;50.124;8.582;2023-05-07T03:58:53;17.00;99.90
20829;DHT22;10575;50.124;8.582;2023-05-07T04:01:19;16.90;99.90
20829;DHT22;10575;50.124;8.582;2023-05-07T04:03:44;16.90;99.90
20829;DHT22;10575;50.124;8.582;2023-05-07T04:06:10;16.90;99.90
20829;DHT22;10575;50.124;8.582;2023-05-07T04:08:36;16.80;99.90
20829;DHT22;10575;50.124;8.582;2023-05-07T04:11:01;16.70;99.90
20829;DHT22;10575;50.124;8.582;2023-05-07T04:13:27;16.70;99.90
20829;DHT22;10575;50.124;8.582;2023-05-07T04:15:54;16.70;99.90
20829;DHT22;10575;50.124;8.582;2023-05-07T04:18:20;16.60;99.90
20829;DHT22;10575;50.124;8.582;2023-05-07T04:20:47;16.40;99.90
20829;DHT22;10575;50.124;8.582;2023-05-07T04:23:13;16.50;99.90
20829;DHT22;10575;50.124;8.582;2023-05-07T04:25:38;16.60;99.90
20829;DHT22;10575;50.124;8.582;2023-05-07T04:28:04;16.60;99.90
20829;DHT22;10575;50.124;8.582;2023-05-07T04:30:30;16.60;99.90
20829;DHT22;10575;50.124;8.582;2023-05-07T04:32:55;16.70;99.90
20829;DHT22;10575;50.124;8.582;2023-05-07T04:35:21;16.80;99.90
20829;DHT22;10575;50.124;8.582;2023-05-07T04:37:47;16.90;99.90
20829;DHT22;10575;50.124;8.582;2023-05-07T04:40:12;16.90;99.90
20829;DHT22;10575;50.124;8.582;2023-05-07T04:42:38;16.70;99.90
20829;DHT22;10575;50.124;8.582;2023-05-07T04:45:04;16.60;99.90
20829;DHT22;10575;50.124;8.582;2023-05-07T04:47:30;16.70;99.90
20829;DHT22;10575;50.124;8.582;2023-05-07T04:49:57;16.80;99.90
20829;DHT22;10575;50.124;8.582;2023-05-07T04:52:22;17.00;99.90
20829;DHT22;10575;50.124;8.582;2023-05-07T04:54:48;17.00;99.90
20829;DHT22;10575;50.124;8.582;2023-05-07T04:57:13;17.00;99.90
20829;DHT22;10575;50.124;8.582;2023-05-07T04:59:39;17.10;99.90
20829;DHT22;10575;50.124;8.582;2023-05-07T05:02:04;16.90;99.90
20829;DHT22;10575;50.124;8.582;2023-05-07T05:04:30;16.90;99.90
20829;DHT22;10575;50.124;8.582;2023-05-07T05:06:55;17.00;99.90
20829;DHT22;10575;50.124;8.582;2023-05-07T05:09:21;17.00;99.90
20829;DHT22;10575;50.124;8.582;2023-05-07T05:11:47;17.10;99.90
20829;DHT22;10575;50.124;8.582;2023-05-07T05:14:12;17.10;99.90
20829;DHT22;10575;50.124;8.582;2023-05-07T05:16:38;17.00;99.90
20829;DHT22;10575;50.124;8.582;2023-05-07T05:19:03;16.90;99.90
20829;DHT22;10575;50.124;8.582;2023-05-07T05:21:29;16.90;99.90
20829;DHT22;10575;50.124;8.582;2023-05-07T05:23:54;17.00;99.90
20829;DHT22;10575;50.124;8.582;2023-05-07T05:26:20;17.10;99.90
20829;DHT22;10575;50.124;8.582;2023-05-07T05:28:46;17.30;99.90
20829;DHT22;10575;50.124;8.582;2023-05-07T05:31:12;17.40;99.90
20829;DHT22;10575;50.124;8.582;2023-05-07T05:33:37;17.60;99.90
20829;DHT22;10575;50.124;8.582;2023-05-07T05:36:03;17.60;99.90
20829;DHT22;10575;50.124;8.582;2023-05-07T05:38:29;17.70;99.90
20829;DHT22;10575;50.124;8.582;2023-05-07T05:40:55;17.60;99.90
20829;DHT22;10575;50.124;8.582;2023-05-07T05:43:20;17.70;99.90
20829;DHT22;10575;50.124;8.582;2023-05-07T05:45:46;17.70;99.90
20829;DHT22;10575;50.124;8.582;2023-05-07T05:48:11;17.70;99.90
20829;DHT22;10575;50.124;8.582;2023-05-07T05:50:37;17.70;99.90
20829;DHT22;10575;50.124;8.582;2023-05-07T05:53:03;17.80;99.90
20829;DHT22;10575;50.124;8.582;2023-05-07T05:55:28;17.90;99.90
20829;DHT22;10575;50.124;8.582;2023-05-07T05:57:54;18.00;99.90
20829;DHT22;10575;50.124;8.582;2023-05-07T06:00:19;18.30;99.90
20829;DHT22;10575;50.124;8.582;2023-05-07T06:02:47;18.50;99.90
20829;DHT22;10575;50.124;8.582;2023-05-07T06:05:13;18.50;99.90
20829;DHT22;10575;50.124;8.582;2023-05-07T06:07:39;18.70;99.90
20829;DHT22;10575;50.124;8.582;2023-05-07T06:10:05;19.00;99.90
20829;DHT22;10575;50.124;8.582;2023-05-07T06:12:31;19.00;99.90
20829;DHT22;10575;50.124;8.582;2023-05-07T06:14:56;18.80;99.90
20829;DHT22;10575;50.124;8.582;2023-05-07T06:17:22;18.80;99.90
20829;DHT22;10575;50.124;8.582;2023-05-07T06:19:47;18.80;99.90
20829;DHT22;10575;50.124;8.582;2023-05-07T06:22:13;18.90;99.90
20829;DHT22;10575;50.124;8.582;2023-05-07T06:24:38;19.20;99.90
20829;DHT22;10575;50.124;8.582;2023-05-07T06:27:04;19.70;99.90
20829;DHT22;10575;50.124;8.582;2023-05-07T06:29:29;20.20;99.90
20829;DHT22;10575;50.124;8.582;2023-05-07T06:32:09;20.20;99.90
20829;DHT22;10575;50.124;8.582;2023-05-07T06:34:35;20.00;99.90
20829;DHT22;10575;50.124;8.582;2023-05-07T06:37:01;20.20;99.90
20829;DHT22;10575;50.124;8.582;2023-05-07T06:39:26;20.20;99.90
20829;DHT22;10575;50.124;8.582;2023-05-07T06:41:52;20.50;99.90
20829;DHT22;10575;50.124;8.582;2023-05-07T06:44:18;20.80;99.90
20829;DHT22;10575;50.124;8.582;2023-05-07T06:46:43;20.80;99.90
20829;DHT22;10575;50.124;8.582;2023-05-07T06:49:10;21.00;99.90
20829;DHT22;10575;50.124;8.582;2023-05-07T06:51:36;21.30;99.90
20829;DHT22;10575;50.124;8.582;2023-05-07T06:54:01;21.60;99.90
20829;DHT22;10575;50.124;8.582;2023-05-07T06:56:27;22.70;99.90
20829;DHT22;10575;50.124;8.582;2023-05-07T06:58:52;23.30;99.90
20829;DHT22;10575;50.124;8.582;2023-05-07T07:01:18;24.00;99.90
20829;DHT22;10575;50.124;8.582;2023-05-07T07:03:43;24.40;99.90
20829;DHT22;10575;50.124;8.582;2023-05-07T07:06:09;25.60;99.90
20829;DHT22;10575;50.124;8.582;2023-05-07T07:08:34;25.70;99.90
20829;DHT22;10575;50.124;8.582;2023-05-07T07:11:00;25.50;99.90
20829;DHT22;10575;50.124;8.582;2023-05-07T07:13:26;25.40;99.90
20829;DHT22;10575;50.124;8.582;2023-05-07T07:15:52;24.80;99.90
20829;DHT22;10575;50.124;8.582;2023-05-07T07:18:18;24.50;99.90
20829;DHT22;10575;50.124;8.582;2023-05-07T07:20:44;24.10;99.90
20829;DHT22;10575;50.124;8.582;2023-05-07T07:23:09;23.70;99.90
20829;DHT22;10575;50.124;8.582;2023-05-07T07:25:35;23.10;99.90
20829;DHT22;10575;50.124;8.582;2023-05-07T07:28:01;22.90;99.90
20829;DHT22;10575;50.124;8.582;2023-05-07T07:30:26;23.60;99.90
20829;DHT22;10575;50.124;8.582;2023-05-07T07:32:52;23.70;99.90
20829;DHT22;10575;50.124;8.582;2023-05-07T07:35:18;23.90;99.90
20829;DHT22;10575;50.124;8.582;2023-05-07T07:37:43;23.80;99.90
20829;DHT22;10575;50.124;8.582;2023-05-07T07:40:10;24.10;99.90
20829;DHT22;10575;50.124;8.582;2023-05-07T07:42:36;24.40;99.90
20829;DHT22;10575;50.124;8.582;2023-05-07T07:45:02;24.00;99.90
20829;DHT22;10575;50.124;8.582;2023-05-07T07:47:28;24.10;99.90
20829;DHT22;10575;50.124;8.582;2023-05-07T07:49:53;23.90;99.90
20829;DHT22;10575;50.124;8.582;2023-05-07T07:52:19;23.50;99.90
20829;DHT22;10575;50.124;8.582;2023-05-07T07:54:45;23.10;99.90
20829;DHT22;10575;50.124;8.582;2023-05-07T07:57:10;23.10;99.90
20829;DHT22;10575;50.124;8.582;2023-05-07T07:59:36;22.80;99.90
20829;DHT22;10575;50.124;8.582;2023-05-07T08:02:02;22.40;99.90
20829;DHT22;10575;50.124;8.582;2023-05-07T08:04:27;21.90;99.90
20829;DHT22;10575;50.124;8.582;2023-05-07T08:06:53;21.80;99.90
20829;DHT22;10575;50.124;8.582;2023-05-07T08:09:20;21.80;99.90
20829;DHT22;10575;50.124;8.582;2023-05-07T08:11:46;21.90;99.90
20829;DHT22;10575;50.124;8.582;2023-05-07T08:14:12;21.50;99.90
20829;DHT22;10575;50.124;8.582;2023-05-07T08:16:38;21.30;99.90
20829;DHT22;10575;50.124;8.582;2023-05-07T08:19:03;21.00;99.90
20829;DHT22;10575;50.124;8.582;2023-05-07T08:21:29;21.10;99.90
20829;DHT22;10575;50.124;8.582;2023-05-07T08:23:59;21.50;99.90
20829;DHT22;10575;50.124;8.582;2023-05-07T08:26:25;21.60;99.90
20829;DHT22;10575;50.124;8.582;2023-05-07T08:28:51;21.70;99.90
20829;DHT22;10575;50.124;8.582;2023-05-07T08:31:17;21.80;99.90
20829;DHT22;10575;50.124;8.582;2023-05-07T08:33:42;22.00;99.90
20829;DHT22;10575;50.124;8.582;2023-05-07T08:36:08;22.30;99.90
20829;DHT22;10575;50.124;8.582;2023-05-07T08:38:34;22.10;99.90
20829;DHT22;10575;50.124;8.582;2023-05-07T08:40:59;22.00;99.90
20829;DHT22;10575;50.124;8.582;2023-05-07T08:43:26;22.30;99.90
20829;DHT22;10575;50.124;8.582;2023-05-07T08:45:54;22.30;99.90
20829;DHT22;10575;50.124;8.582;2023-05-07T08:48:25;22.10;99.90
20829;DHT22;10575;50.124;8.582;2023-05-07T08:50:51;22.00;99.90
20829;DHT22;10575;50.124;8.582;2023-05-07T08:53:21;22.10;99.90
20829;DHT22;10575;50.124;8.582;2023-05-07T08:55:47;22.30;99.90
20829;DHT22;10575;50.124;8.582;2023-05-07T08:58:13;22.30;99.90
20829;DHT22;10575;50.124;8.582;2023-05-07T09:00:40;22.60;99.90
20829;DHT22;10575;50.124;8.582;2023-05-07T09:03:07;22.90;99.90
20829;DHT22;10575;50.124;8.582;2023-05-07T09:05:32;23.20;99.90
20829;DHT22;10575;50.124;8.582;2023-05-07T09:08:06;23.10;99.90
20829;DHT22;10575;50.124;8.582;2023-05-07T09:10:33;23.60;99.90
20829;DHT22;10575;50.124;8.582;2023-05-07T09:12:59;23.50;99.90
20829;DHT22;10575;50.124;8.582;2023-05-07T09:15:25;23.30;99.90
20829;DHT22;10575;50.124;8.582;2023-05-07T09:17:51;23.00;99.90
20829;DHT22;10575;50.124;8.582;2023-05-07T09:20:16;22.80;99.90
20829;DHT22;10575;50.124;8.582;2023-05-07T09:22:42;22.90;99.90
20829;DHT22;10575;50.124;8.582;2023-05-07T09:25:09;23.00;99.90
20829;DHT22;10575;50.124;8.582;2023-05-07T09:27:35;23.20;99.90
20829;DHT22;10575;50.124;8.582;2023-05-07T09:30:08;23.70;99.90
20829;DHT22;10575;50.124;8.582;2023-05-07T09:32:35;24.40;99.90
20829;DHT22;10575;50.124;8.582;2023-05-07T09:35:03;24.60;99.90
20829;DHT22;10575;50.124;8.582;2023-05-07T09:37:30;25.00;99.90
20829;DHT22;10575;50.124;8.582;2023-05-07T09:39:56;25.00;99.90
20829;DHT22;10575;50.124;8.582;2023-05-07T09:42:25;25.50;99.90
20829;DHT22;10575;50.124;8.582;2023-05-07T09:44:52;25.70;99.90
20829;DHT22;10575;50.124;8.582;2023-05-07T09:47:23;25.90;99.90
20829;DHT22;10575;50.124;8.582;2023-05-07T09:49:50;25.60;99.90
20829;DHT22;10575;50.124;8.582;2023-05-07T09:52:17;25.00;99.90
20829;DHT22;10575;50.124;8.582;2023-05-07T09:54:45;24.90;99.90
20829;DHT22;10575;50.124;8.582;2023-05-07T09:57:12;24.60;99.90
20829;DHT22;10575;50.124;8.582;2023-05-07T09:59:42;24.60;99.90
20829;DHT22;10575;50.124;8.582;2023-05-07T10:02:09;24.40;99.90
20829;DHT22;10575;50.124;8.582;2023-05-07T10:04:36;24.30;99.90
20829;DHT22;10575;50.124;8.582;2023-05-07T10:07:03;24.20;99.90
20829;DHT22;10575;50.124;8.582;2023-05-07T10:09:30;24.40;99.90
20829;DHT22;10575;50.124;8.582;2023-05-07T10:11:56;24.40;99.90
20829;DHT22;10575;50.124;8.582;2023-05-07T10:14:22;24.20;99.90
20829;DHT22;10575;50.124;8.582;2023-05-07T10:16:48;24.30;99.90
20829;DHT22;10575;50.124;8.582;2023-05-07T10:19:14;24.40;99.90
20829;DHT22;10575;50.124;8.582;2023-05-07T10:21:47;24.50;99.90
20829;DHT22;10575;50.124;8.582;2023-05-07T10:24:21;24.40;99.90
20829;DHT22;10575;50.124;8.582;2023-05-07T10:26:49;24.40;99.90
20829;DHT22;10575;50.124;8.582;2023-05-07T10:29:25;24.30;99.90
20829;DHT22;10575;50.124;8.582;2023-05-07T10:32:30;24.20;99.90
20829;DHT22;10575;50.124;8.582;2023-05-07T10:35:02;24.10;99.90
20829;DHT22;10575;50.124;8.582;2023-05-07T10:37:30;24.00;99.90
20829;DHT22;10575;50.124;8.582;2023-05-07T10:39:57;24.00;99.90
20829;DHT22;10575;50.124;8.582;2023-05-07T10:42:23;24.00;99.90
20829;DHT22;10575;50.124;8.582;2023-05-07T10:44:49;23.90;99.90
20829;DHT22;10575;50.124;8.582;2023-05-07T10:47:16;24.30;99.90
20829;DHT22;10575;50.124;8.582;2023-05-07T10:52:23;23.90;99.90
20829;DHT22;10575;50.124;8.582;2023-05-07T10:57:42;23.50;99.90
20829;DHT22;10575;50.124;8.582;2023-05-07T11:05:31;23.60;99.90
20829;DHT22;10575;50.124;8.582;2023-05-07T11:07:57;23.70;99.90
20829;DHT22;10575;50.124;8.582;2023-05-07T11:10:28;23.80;99.90
20829;DHT22;10575;50.124;8.582;2023-05-07T11:13:09;24.00;99.90
20829;DHT22;10575;50.124;8.582;2023-05-07T11:15:39;24.10;99.90
20829;DHT22;10575;50.124;8.582;2023-05-07T11:18:05;24.30;99.90
20829;DHT22;10575;50.124;8.582;2023-05-07T11:20:50;24.70;99.90
20829;DHT22;10575;50.124;8.582;2023-05-07T11:26:05;24.70;99.90
20829;DHT22;10575;50.124;8.582;2023-05-07T11:28:36;24.60;99.90
20829;DHT22;10575;50.124;8.582;2023-05-07T11:31:02;25.00;99.90
20829;DHT22;10575;50.124;8.582;2023-05-07T11:33:29;24.90;99.90
20829;DHT22;10575;50.124;8.582;2023-05-07T11:35:56;25.00;99.90
20829;DHT22;10575;50.124;8.582;2023-05-07T11:38:22;25.20;99.90
20829;DHT22;10575;50.124;8.582;2023-05-07T11:40:59;25.20;99.90
20829;DHT22;10575;50.124;8.582;2023-05-07T11:43:28;25.10;99.90
20829;DHT22;10575;50.124;8.582;2023-05-07T11:45:53;25.10;99.90
20829;DHT22;10575;50.124;8.582;2023-05-07T11:48:21;24.80;99.90
20829;DHT22;10575;50.124;8.582;2023-05-07T11:51:01;24.80;99.90
20829;DHT22;10575;50.124;8.582;2023-05-07T11:53:28;25.10;99.90
20829;DHT22;10575;50.124;8.582;2023-05-07T11:55:55;25.30;99.90
20829;DHT22;10575;50.124;8.582;2023-05-07T11:58:23;25.30;99.90
20829;DHT22;10575;50.124;8.582;2023-05-07T12:00:50;24.90;99.90
20829;DHT22;10575;50.124;8.582;2023-05-07T12:03:15;25.00;99.90
20829;DHT22;10575;50.124;8.582;2023-05-07T12:05:41;24.80;99.90
20829;DHT22;10575;50.124;8.582;2023-05-07T12:08:07;24.90;99.90
20829;DHT22;10575;50.124;8.582;2023-05-07T12:10:33;25.20;99.90
20829;DHT22;10575;50.124;8.582;2023-05-07T12:12:58;25.10;99.90
20829;DHT22;10575;50.124;8.582;2023-05-07T12:15:24;25.40;99.90
20829;DHT22;10575;50.124;8.582;2023-05-07T12:17:50;25.60;99.90
20829;DHT22;10575;50.124;8.582;2023-05-07T12:20:16;25.50;99.90
20829;DHT22;10575;50.124;8.582;2023-05-07T12:22:42;25.70;99.90
20829;DHT22;10575;50.124;8.582;2023-05-07T12:25:08;26.00;98.90
20829;DHT22;10575;50.124;8.582;2023-05-07T12:27:37;26.10;98.20
20829;DHT22;10575;50.124;8.582;2023-05-07T12:30:04;25.60;98.20
20829;DHT22;10575;50.124;8.582;2023-05-07T12:32:30;25.50;99.90
20829;DHT22;10575;50.124;8.582;2023-05-07T12:34:55;25.40;99.90
20829;DHT22;10575;50.124;8.582;2023-05-07T12:37:24;25.30;97.40
20829;DHT22;10575;50.124;8.582;2023-05-07T12:40:04;25.60;96.80
20829;DHT22;10575;50.124;8.582;2023-05-07T12:42:35;25.60;97.60
20829;DHT22;10575;50.124;8.582;2023-05-07T12:45:16;25.60;98.80
20829;DHT22;10575;50.124;8.582;2023-05-07T12:47:45;25.80;96.60
20829;DHT22;10575;50.124;8.582;2023-05-07T12:50:11;25.90;95.20
20829;DHT22;10575;50.124;8.582;2023-05-07T12:52:37;26.10;94.60
20829;DHT22;10575;50.124;8.582;2023-05-07T12:55:07;26.20;93.20
20829;DHT22;10575;50.124;8.582;2023-05-07T12:57:43;26.00;95.40
20829;DHT22;10575;50.124;8.582;2023-05-07T13:00:11;25.70;97.50
20829;DHT22;10575;50.124;8.582;2023-05-07T13:02:41;25.40;97.60
20829;DHT22;10575;50.124;8.582;2023-05-07T13:05:07;25.20;96.40
20829;DHT22;10575;50.124;8.582;2023-05-07T13:07:33;25.20;93.90
20829;DHT22;10575;50.124;8.582;2023-05-07T13:09:59;25.40;94.50
20829;DHT22;10575;50.124;8.582;2023-05-07T13:12:24;25.50;93.50
20829;DHT22;10575;50.124;8.582;2023-05-07T13:14:50;25.60;94.50
20829;DHT22;10575;50.124;8.582;2023-05-07T13:17:15;25.90;94.40
20829;DHT22;10575;50.124;8.582;2023-05-07T13:19:41;26.10;93.00
20829;DHT22;10575;50.124;8.582;2023-05-07T13:22:07;26.10;95.30
20829;DHT22;10575;50.124;8.582;2023-05-07T13:24:32;25.90;95.80
20829;DHT22;10575;50.124;8.582;2023-05-07T13:26:58;25.50;96.70
20829;DHT22;10575;50.124;8.582;2023-05-07T13:29:23;25.30;98.00
20829;DHT22;10575;50.124;8.582;2023-05-07T13:31:56;25.20;98.70
20829;DHT22;10575;50.124;8.582;2023-05-07T13:34:22;24.90;99.60
20829;DHT22;10575;50.124;8.582;2023-05-07T13:36:48;24.70;99.90
20829;DHT22;10575;50.124;8.582;2023-05-07T13:39:13;24.70;99.90
20829;DHT22;10575;50.124;8.582;2023-05-07T13:41:39;24.70;99.40
20829;DHT22;10575;50.124;8.582;2023-05-07T13:44:05;24.90;99.50
20829;DHT22;10575;50.124;8.582;2023-05-07T13:46:30;25.10;99.20
20829;DHT22;10575;50.124;8.582;2023-05-07T13:48:56;25.60;99.30
20829;DHT22;10575;50.124;8.582;2023-05-07T13:51:22;25.80;98.90
20829;DHT22;10575;50.124;8.582;2023-05-07T13:53:47;25.70;98.70
20829;DHT22;10575;50.124;8.582;2023-05-07T13:56:13;25.50;99.60
20829;DHT22;10575;50.124;8.582;2023-05-07T13:58:39;25.40;99.00
20829;DHT22;10575;50.124;8.582;2023-05-07T14:01:05;25.50;99.30
20829;DHT22;10575;50.124;8.582;2023-05-07T14:03:30;25.40;97.20
20829;DHT22;10575;50.124;8.582;2023-05-07T14:05:58;25.40;97.90
20829;DHT22;10575;50.124;8.582;2023-05-07T14:08:25;25.20;97.30
20829;DHT22;10575;50.124;8.582;2023-05-07T14:10:51;25.00;96.90
20829;DHT22;10575;50.124;8.582;2023-05-07T14:13:16;24.90;98.30
20829;DHT22;10575;50.124;8.582;2023-05-07T14:15:42;24.90;99.00
20829;DHT22;10575;50.124;8.582;2023-05-07T14:18:12;24.80;98.80
20829;DHT22;10575;50.124;8.582;2023-05-07T14:20:37;24.80;99.80
20829;DHT22;10575;50.124;8.582;2023-05-07T14:23:03;25.00;98.60
20829;DHT22;10575;50.124;8.582;2023-05-07T14:25:28;24.70;97.20
20829;DHT22;10575;50.124;8.582;2023-05-07T14:27:54;24.50;97.50
20829;DHT22;10575;50.124;8.582;2023-05-07T14:30:19;24.40;97.60
20829;DHT22;10575;50.124;8.582;2023-05-07T14:32:45;24.40;96.60
20829;DHT22;10575;50.124;8.582;2023-05-07T14:35:10;24.40;98.10
20829;DHT22;10575;50.124;8.582;2023-05-07T14:37:36;24.30;97.70
20829;DHT22;10575;50.124;8.582;2023-05-07T14:40:01;24.70;98.50
20829;DHT22;10575;50.124;8.582;2023-05-07T14:42:27;24.90;97.80
20829;DHT22;10575;50.124;8.582;2023-05-07T14:44:53;25.00;97.40
20829;DHT22;10575;50.124;8.582;2023-05-07T14:47:18;25.00;97.40
20829;DHT22;10575;50.124;8.582;2023-05-07T14:49:44;25.00;97.60
20829;DHT22;10575;50.124;8.582;2023-05-07T14:52:09;25.20;98.00
20829;DHT22;10575;50.124;8.582;2023-05-07T14:54:36;25.20;97.30
20829;DHT22;10575;50.124;8.582;2023-05-07T14:57:02;25.20;97.50
20829;DHT22;10575;50.124;8.582;2023-05-07T14:59:28;25.10;97.20
20829;DHT22;10575;50.124;8.582;2023-05-07T15:01:54;24.90;96.60
20829;DHT22;10575;50.124;8.582;2023-05-07T15:04:19;24.70;96.10
20829;DHT22;10575;50.124;8.582;2023-05-07T15:06:45;24.50;96.70
20829;DHT22;10575;50.124;8.582;2023-05-07T15:09:11;24.40;96.30
20829;DHT22;10575;50.124;8.582;2023-05-07T15:11:37;24.20;95.90
20829;DHT22;10575;50.124;8.582;2023-05-07T15:14:03;24.10;95.90
20829;DHT22;10575;50.124;8.582;2023-05-07T15:16:28;24.00;96.30
20829;DHT22;10575;50.124;8.582;2023-05-07T15:18:54;24.00;96.30
20829;DHT22;10575;50.124;8.582;2023-05-07T15:21:19;24.00;96.90
20829;DHT22;10575;50.124;8.582;2023-05-07T15:23:45;24.00;96.70
20829;DHT22;10575;50.124;8.582;2023-05-07T15:26:11;23.90;96.80
20829;DHT22;10575;50.124;8.582;2023-05-07T15:28:36;23.70;96.60
20829;DHT22;10575;50.124;8.582;2023-05-07T15:31:03;23.60;97.50
20829;DHT22;10575;50.124;8.582;2023-05-07T15:33:28;23.50;96.60
20829;DHT22;10575;50.124;8.582;2023-05-07T15:35:54;23.40;96.40
20829;DHT22;10575;50.124;8.582;2023-05-07T15:38:24;23.40;96.50